Flight Track Log - Related Links

Times and Time Zones

All times are in EDT time to prevent confusion due to time zone crossing. See the N33TR flight status page for this flight to view local times or setup timezone preferences in your user account.

Time Position Orientation Groundspeed Altitude Reporting Facility
EDT Latitude Longitude Course Direction KTS MPH feet Rate Location/Type
Fri 01:05:36 PM 27.0542 -101.1086 78° East 297 342 17,200  Level Houston Center
Fri 01:06:38 PM 27.0719 -101.0131 78° East 308 354 19,100 1,645 Climbing Houston Center
Fri 01:07:40 PM 27.0994 -100.9144 73° East 326 375 20,600 1,306 Climbing Houston Center
Fri 01:08:42 PM 27.1281 -100.8067 73° East 351 404 21,800 1,210 Climbing Houston Center
Fri 01:09:44 PM 27.1561 -100.6961 74° East 364 419 23,100 1,306 Climbing Houston Center
Fri 01:10:46 PM 27.1911 -100.5578 74° East 382 440 24,500 1,104 Climbing Houston Center
Fri 01:11:49 PM 27.2211 -100.4392 74° East 391 450 25,400 912 Climbing Houston Center
Fri 01:12:51 PM 27.2517 -100.3167 74° East 402 463 26,400 968 Climbing Houston Center
Fri 01:13:53 PM 27.2828 -100.1939 74° East 408 470 27,400 919 Climbing Houston Center
Fri 01:14:55 PM 27.3158 -100.0703 73° East 412 474 28,300 968 Climbing Houston Center
Fri 01:15:57 PM 27.3519 -99.9172 75° East 420 483 29,400 919 Climbing Houston Center
Fri 01:16:59 PM 27.3842 -99.7903 74° East 421 484 30,200 774 Climbing Houston Center
Fri 01:18:01 PM 27.4156 -99.6617 75° East 426 490 31,000 768 Climbing Houston Center
Fri 01:19:04 PM 27.4478 -99.5322 74° East 429 494 31,800 768 Climbing Houston Center
Fri 01:20:06 PM 27.4808 -99.4028 74° East 430 495 32,600 726 Climbing Houston Center
Fri 01:21:08 PM 27.5200 -99.2778 71° East 426 490 33,300 774 Climbing Houston Center
Fri 01:22:10 PM 27.5800 -99.1594 60° Northeast 430 495 34,200 823 Climbing Houston Center
Fri 01:23:12 PM 27.6839 -99.0472 44° Northeast 433 498 35,000 823 Climbing Houston Center
Fri 01:24:14 PM 27.7961 -99.0142 15° North 417 480 35,900 774 Climbing Houston Center
Fri 01:25:16 PM 27.9072 -98.9844 13° North 411 473 36,600 532 Climbing Houston Center
Fri 01:26:18 PM 28.0192 -98.9489 16° North 414 476 37,000 194 Climbing Houston Center
Fri 01:27:20 PM 28.1344 -98.9136 15° North 426 490 37,000  Level Houston Center
Fri 01:28:22 PM 28.2528 -98.8789 14° North 437 503 37,000  Level Houston Center
Fri 01:29:24 PM 28.3736 -98.8425 15° North 446 513 37,000  Level Houston Center
Fri 01:30:26 PM 28.5189 -98.7997 15° North 449 517 37,000  Level Houston Center
Fri 01:31:28 PM 28.6394 -98.7619 15° North 449 517 37,000  Level Houston Center
Fri 01:32:30 PM 28.7675 -98.7258 14° North 448 516 37,000  Level Houston Center
Fri 01:33:32 PM 28.8967 -98.6872 15° North 447 514 37,000  Level Houston Center
Fri 01:34:34 PM 29.0169 -98.6503 15° North 448 516 37,000  Level Houston Center
Fri 01:35:36 PM 29.1481 -98.6119 14° North 449 517 37,000  Level Houston Center
Fri 01:36:38 PM 29.2694 -98.5742 15° North 451 519 37,000  Level Houston Center
Fri 01:37:40 PM 29.3911 -98.5381 14° North 451 519 37,000  Level Houston Center
Fri 01:38:42 PM 29.5042 -98.5044 15° North 458 527 37,000  Level Houston Center
Fri 01:39:44 PM 29.6300 -98.4653 15° North 467 537 37,000  Level Houston Center
Fri 01:40:46 PM 29.7786 -98.4389 North 447 514 37,000  Level Houston Center
Fri 01:41:48 PM 29.9153 -98.4233 North 456 525 37,000  Level Houston Center
Fri 01:42:50 PM 30.0403 -98.4019 North 457 526 37,000  Level Houston Center
Fri 01:43:52 PM 30.1772 -98.3822 North 456 525 37,000  Level Houston Center
Fri 01:44:55 PM 30.3039 -98.3639 North 458 527 37,000  Level Houston Center
Fri 01:45:57 PM 30.4272 -98.3450 North 467 537 37,000  Level Houston Center
Fri 01:46:59 PM 30.5553 -98.3261 North 460 529 37,000  Level Houston Center
Fri 01:48:01 PM 30.6847 -98.3075 North 460 529 37,000  Level Houston Center
Fri 01:49:03 PM 30.8131 -98.2892 North 459 528 37,000  Level Houston Center
Fri 01:50:05 PM 30.9617 -98.2658 North 456 525 37,000  Level Houston Center
Fri 01:51:07 PM 31.0911 -98.2472 North 458 527 37,000 -207 Level Houston Center
Fri 01:52:01 PM 31.1958 -98.2317 North 459 528 36,600 -947 Descending Fort Worth Center
Fri 01:53:01 PM 31.3361 -98.2086 North 464 534 35,200 -1,500 Descending Fort Worth Center
Fri 01:54:01 PM 31.4594 -98.1489 22° Northeast 470 541 33,600 -1,550 Descending Fort Worth Center
Fri 01:55:01 PM 31.5831 -98.0767 26° Northeast 475 547 32,100 -1,500 Descending Fort Worth Center
Fri 01:56:01 PM 31.7025 -98.0117 25° Northeast 480 552 30,600 -1,900 Descending Fort Worth Center
Fri 01:57:01 PM 31.8239 -97.9439 25° Northeast 480 552 28,300 -2,650 Descending Fort Worth Center
Fri 01:58:01 PM 31.9453 -97.8786 25° Northeast 478 550 25,300 -3,150 Descending Fort Worth Center
Fri 01:59:01 PM 32.0581 -97.8153 25° Northeast 455 524 22,000 -3,100 Descending Fort Worth Center
Fri 02:00:01 PM 32.1711 -97.7544 24° Northeast 455 524 19,100 -3,100 Descending Fort Worth Center
Fri 02:01:01 PM 32.2797 -97.6936 25° Northeast 432 497 15,800 -2,950 Descending Fort Worth Center
Fri 02:02:01 PM 32.3675 -97.6275 32° Northeast 393 452 13,200 -2,350 Descending Fort Worth Center
Fri 02:03:01 PM 32.4325 -97.5489 46° Northeast 339 390 11,100 -1,150 Descending Fort Worth Center
Fri 02:04:01 PM 32.4994 -97.4700 45° Northeast 328 377 10,900 -100 Descending Fort Worth Center
Fri 02:05:01 PM 32.5642 -97.3936 45° Northeast 328 377 10,900  Level Fort Worth Center
Fri 02:05:21 PM 32.5833 -97.3667 50° Northeast 335 386 10,900  Level Dallas / Fort Worth TRACON
Fri 02:06:01 PM 32.6286 -97.3122 45° Northeast 328 377 10,900  Level Fort Worth Center
Fri 02:07:01 PM 32.6933 -97.2381 44° Northeast 328 377 10,900 -100 Level Fort Worth Center
Fri 02:08:01 PM 32.7475 -97.1739 45° Northeast 301 346 10,700 -1,100 Descending Fort Worth Center
Fri 02:09:01 PM 32.8206 -97.1736 360° North 246 283 8,700 -1,900 Descending Fort Worth Center
Fri 02:10:01 PM 32.8811 -97.1736 360° North 246 283 6,900 -2,100 Descending Fort Worth Center
Fri 02:11:01 PM 32.9247 -97.1017 54° Northeast 215 247 4,500 -2,250 Descending Fort Worth Center
Fri 02:11:21 PM 32.9333 -97.0667 74° East 234 269 3,900 -480 Descending Dallas / Fort Worth TRACON
Fri 02:12:16 PM 32.9500 -97.0167 68° East 196 226 3,900 -368 Level Dallas / Fort Worth TRACON
Fri 02:13:15 PM 32.9333 -96.9500 107° East 190 219 3,200 -1,008 Descending Dallas / Fort Worth TRACON
Fri 02:14:15 PM 32.9000 -96.9000 128° Southeast 180 207 1,900 -1,200 Descending Dallas / Fort Worth TRACON
Fri 02:15:15 PM 32.8667 -96.8667 140° Southeast 164 189 800 -1,100 Descending Dallas / Fort Worth TRACON
Fri 02:17:00 PM 32.8471 -96.8518 115° Southeast  Level Estimated
Fri 02:24:00 PM 32.8471 -96.8518 115° Southeast  Level Estimated

Login

Don't have an account? Register now (free) for customized features, flight alerts, and more!